sensor_id;sensor_type;location;lat;lon;timestamp;pressure;altitude;pressure_sealevel;temperature
63220;BMP180;49320;52.512;13.448;2023-09-07T00:00:16;101994.00;;;25.60
63220;BMP180;49320;52.512;13.448;2023-09-07T00:02:43;101989.00;;;25.60
63220;BMP180;49320;52.512;13.448;2023-09-07T00:05:10;101994.00;;;25.60
63220;BMP180;49320;52.512;13.448;2023-09-07T00:07:37;101984.00;;;25.60
63220;BMP180;49320;52.512;13.448;2023-09-07T00:10:05;101985.00;;;25.50
63220;BMP180;49320;52.512;13.448;2023-09-07T00:12:33;101991.00;;;25.50
63220;BMP180;49320;52.512;13.448;2023-09-07T00:14:59;101992.00;;;25.50
63220;BMP180;49320;52.512;13.448;2023-09-07T00:17:27;101987.00;;;25.50
63220;BMP180;49320;52.512;13.448;2023-09-07T00:19:55;101990.00;;;25.50
63220;BMP180;49320;52.512;13.448;2023-09-07T00:22:24;101995.00;;;25.40
63220;BMP180;49320;52.512;13.448;2023-09-07T00:24:54;101989.00;;;25.40
63220;BMP180;49320;52.512;13.448;2023-09-07T00:27:21;101994.00;;;25.40
63220;BMP180;49320;52.512;13.448;2023-09-07T00:29:48;102004.00;;;25.40
63220;BMP180;49320;52.512;13.448;2023-09-07T00:32:15;101994.00;;;25.40
63220;BMP180;49320;52.512;13.448;2023-09-07T00:34:43;101992.00;;;25.40
63220;BMP180;49320;52.512;13.448;2023-09-07T00:37:09;101991.00;;;25.30
63220;BMP180;49320;52.512;13.448;2023-09-07T00:39:37;101995.00;;;25.30
63220;BMP180;49320;52.512;13.448;2023-09-07T00:42:04;101984.00;;;25.30
63220;BMP180;49320;52.512;13.448;2023-09-07T00:44:31;101995.00;;;25.30
63220;BMP180;49320;52.512;13.448;2023-09-07T00:46:58;101982.00;;;25.30
63220;BMP180;49320;52.512;13.448;2023-09-07T00:49:25;101989.00;;;25.30
63220;BMP180;49320;52.512;13.448;2023-09-07T00:51:53;101984.00;;;25.30
63220;BMP180;49320;52.512;13.448;2023-09-07T00:54:20;101993.00;;;25.20
63220;BMP180;49320;52.512;13.448;2023-09-07T00:56:47;101989.00;;;25.20
63220;BMP180;49320;52.512;13.448;2023-09-07T00:59:14;101988.00;;;25.20
63220;BMP180;49320;52.512;13.448;2023-09-07T01:01:41;101990.00;;;25.20
63220;BMP180;49320;52.512;13.448;2023-09-07T01:04:10;101986.00;;;25.20
63220;BMP180;49320;52.512;13.448;2023-09-07T01:06:45;101985.00;;;25.10
63220;BMP180;49320;52.512;13.448;2023-09-07T01:09:24;101982.00;;;25.10
63220;BMP180;49320;52.512;13.448;2023-09-07T01:11:53;101983.00;;;25.10
63220;BMP180;49320;52.512;13.448;2023-09-07T01:14:20;101980.00;;;25.10
63220;BMP180;49320;52.512;13.448;2023-09-07T01:20:55;101975.00;;;25.00
63220;BMP180;49320;52.512;13.448;2023-09-07T01:23:24;101984.00;;;25.00
63220;BMP180;49320;52.512;13.448;2023-09-07T01:25:52;101977.00;;;24.90
63220;BMP180;49320;52.512;13.448;2023-09-07T01:28:20;101970.00;;;24.90
63220;BMP180;49320;52.512;13.448;2023-09-07T01:30:48;101973.00;;;24.90
63220;BMP180;49320;52.512;13.448;2023-09-07T01:33:15;101981.00;;;24.90
63220;BMP180;49320;52.512;13.448;2023-09-07T01:35:42;101982.00;;;24.90
63220;BMP180;49320;52.512;13.448;2023-09-07T01:38:09;101978.00;;;24.90
63220;BMP180;49320;52.512;13.448;2023-09-07T01:40:36;101967.00;;;24.90
63220;BMP180;49320;52.512;13.448;2023-09-07T01:43:03;101969.00;;;24.80
63220;BMP180;49320;52.512;13.448;2023-09-07T01:45:30;101978.00;;;24.80
63220;BMP180;49320;52.512;13.448;2023-09-07T01:47:59;101985.00;;;24.80
63220;BMP180;49320;52.512;13.448;2023-09-07T01:50:27;101977.00;;;24.80
63220;BMP180;49320;52.512;13.448;2023-09-07T01:52:54;101974.00;;;24.80
63220;BMP180;49320;52.512;13.448;2023-09-07T01:55:21;101982.00;;;24.80
63220;BMP180;49320;52.512;13.448;2023-09-07T01:57:48;101982.00;;;24.80
63220;BMP180;49320;52.512;13.448;2023-09-07T02:00:15;101980.00;;;24.80
63220;BMP180;49320;52.512;13.448;2023-09-07T02:02:42;101977.00;;;24.80
63220;BMP180;49320;52.512;13.448;2023-09-07T02:05:09;101979.00;;;24.70
63220;BMP180;49320;52.512;13.448;2023-09-07T02:07:36;101977.00;;;24.70
63220;BMP180;49320;52.512;13.448;2023-09-07T02:10:03;101976.00;;;24.70
63220;BMP180;49320;52.512;13.448;2023-09-07T02:12:31;101984.00;;;24.70
63220;BMP180;49320;52.512;13.448;2023-09-07T02:15:04;101977.00;;;24.70
63220;BMP180;49320;52.512;13.448;2023-09-07T02:17:31;101981.00;;;24.70
63220;BMP180;49320;52.512;13.448;2023-09-07T02:19:59;101981.00;;;24.70
63220;BMP180;49320;52.512;13.448;2023-09-07T02:22:26;101980.00;;;24.70
63220;BMP180;49320;52.512;13.448;2023-09-07T02:24:53;101973.00;;;24.60
63220;BMP180;49320;52.512;13.448;2023-09-07T02:27:21;101978.00;;;24.70
63220;BMP180;49320;52.512;13.448;2023-09-07T02:29:48;101973.00;;;24.60
63220;BMP180;49320;52.512;13.448;2023-09-07T02:32:15;101974.00;;;24.60
63220;BMP180;49320;52.512;13.448;2023-09-07T02:34:42;101978.00;;;24.60
63220;BMP180;49320;52.512;13.448;2023-09-07T02:37:09;101974.00;;;24.60
63220;BMP180;49320;52.512;13.448;2023-09-07T02:39:36;101967.00;;;24.60
63220;BMP180;49320;52.512;13.448;2023-09-07T02:42:03;101972.00;;;24.60
63220;BMP180;49320;52.512;13.448;2023-09-07T02:44:31;101971.00;;;24.50
63220;BMP180;49320;52.512;13.448;2023-09-07T02:46:58;101971.00;;;24.50
63220;BMP180;49320;52.512;13.448;2023-09-07T02:49:25;101974.00;;;24.50
63220;BMP180;49320;52.512;13.448;2023-09-07T02:51:52;101979.00;;;24.50
63220;BMP180;49320;52.512;13.448;2023-09-07T02:54:19;101977.00;;;24.50
63220;BMP180;49320;52.512;13.448;2023-09-07T02:56:46;101974.00;;;24.50
63220;BMP180;49320;52.512;13.448;2023-09-07T02:59:14;101972.00;;;24.40
63220;BMP180;49320;52.512;13.448;2023-09-07T03:01:41;101971.00;;;24.40
63220;BMP180;49320;52.512;13.448;2023-09-07T03:04:08;101979.00;;;24.40
63220;BMP180;49320;52.512;13.448;2023-09-07T03:06:35;101974.00;;;24.40
63220;BMP180;49320;52.512;13.448;2023-09-07T03:09:03;101975.00;;;24.40
63220;BMP180;49320;52.512;13.448;2023-09-07T03:11:33;101976.00;;;24.50
63220;BMP180;49320;52.512;13.448;2023-09-07T03:14:01;101976.00;;;24.50
63220;BMP180;49320;52.512;13.448;2023-09-07T03:16:28;101975.00;;;24.50
63220;BMP180;49320;52.512;13.448;2023-09-07T03:18:57;101978.00;;;24.50
63220;BMP180;49320;52.512;13.448;2023-09-07T03:21:24;101979.00;;;24.50
63220;BMP180;49320;52.512;13.448;2023-09-07T03:23:59;101975.00;;;24.50
63220;BMP180;49320;52.512;13.448;2023-09-07T03:26:26;101978.00;;;24.40
63220;BMP180;49320;52.512;13.448;2023-09-07T03:28:53;101978.00;;;24.40
63220;BMP180;49320;52.512;13.448;2023-09-07T03:31:20;101985.00;;;24.40
63220;BMP180;49320;52.512;13.448;2023-09-07T03:33:48;101978.00;;;24.40
63220;BMP180;49320;52.512;13.448;2023-09-07T03:36:16;101993.00;;;24.40
63220;BMP180;49320;52.512;13.448;2023-09-07T03:38:43;101976.00;;;24.40
63220;BMP180;49320;52.512;13.448;2023-09-07T03:41:10;101982.00;;;24.30
63220;BMP180;49320;52.512;13.448;2023-09-07T03:43:38;101993.00;;;24.30
63220;BMP180;49320;52.512;13.448;2023-09-07T03:46:05;101984.00;;;24.30
63220;BMP180;49320;52.512;13.448;2023-09-07T03:48:32;101985.00;;;24.30
63220;BMP180;49320;52.512;13.448;2023-09-07T03:51:00;101989.00;;;24.30
63220;BMP180;49320;52.512;13.448;2023-09-07T03:53:27;101988.00;;;24.30
63220;BMP180;49320;52.512;13.448;2023-09-07T03:55:54;101993.00;;;24.20
63220;BMP180;49320;52.512;13.448;2023-09-07T03:58:21;101990.00;;;24.20
63220;BMP180;49320;52.512;13.448;2023-09-07T04:00:49;101992.00;;;24.20
63220;BMP180;49320;52.512;13.448;2023-09-07T04:03:16;101994.00;;;24.10
63220;BMP180;49320;52.512;13.448;2023-09-07T04:05:43;101991.00;;;24.10
63220;BMP180;49320;52.512;13.448;2023-09-07T04:08:10;101991.00;;;24.10
63220;BMP180;49320;52.512;13.448;2023-09-07T04:10:37;101999.00;;;24.10
63220;BMP180;49320;52.512;13.448;2023-09-07T04:13:05;101994.00;;;24.10
63220;BMP180;49320;52.512;13.448;2023-09-07T04:15:41;101984.00;;;24.10
63220;BMP180;49320;52.512;13.448;2023-09-07T04:18:08;101992.00;;;24.10
63220;BMP180;49320;52.512;13.448;2023-09-07T04:20:35;101996.00;;;24.00
63220;BMP180;49320;52.512;13.448;2023-09-07T04:23:02;101992.00;;;24.00
63220;BMP180;49320;52.512;13.448;2023-09-07T04:25:29;101999.00;;;24.00
63220;BMP180;49320;52.512;13.448;2023-09-07T04:27:56;102002.00;;;24.00
63220;BMP180;49320;52.512;13.448;2023-09-07T04:30:24;102002.00;;;24.00
63220;BMP180;49320;52.512;13.448;2023-09-07T04:32:51;102006.00;;;24.00
63220;BMP180;49320;52.512;13.448;2023-09-07T04:35:18;101996.00;;;24.00
63220;BMP180;49320;52.512;13.448;2023-09-07T04:37:45;102005.00;;;24.00
63220;BMP180;49320;52.512;13.448;2023-09-07T04:40:13;102007.00;;;24.00
63220;BMP180;49320;52.512;13.448;2023-09-07T04:42:41;102006.00;;;24.10
63220;BMP180;49320;52.512;13.448;2023-09-07T04:45:08;102003.00;;;24.10
63220;BMP180;49320;52.512;13.448;2023-09-07T04:47:36;102015.00;;;24.10
63220;BMP180;49320;52.512;13.448;2023-09-07T04:50:04;102011.00;;;24.10
63220;BMP180;49320;52.512;13.448;2023-09-07T04:52:31;102007.00;;;24.10
63220;BMP180;49320;52.512;13.448;2023-09-07T04:54:58;102011.00;;;24.10
63220;BMP180;49320;52.512;13.448;2023-09-07T04:57:25;102015.00;;;24.10
63220;BMP180;49320;52.512;13.448;2023-09-07T04:59:52;102014.00;;;24.10
63220;BMP180;49320;52.512;13.448;2023-09-07T05:02:19;102005.00;;;24.10
63220;BMP180;49320;52.512;13.448;2023-09-07T05:04:47;102004.00;;;24.10
63220;BMP180;49320;52.512;13.448;2023-09-07T05:07:14;102003.00;;;24.20
63220;BMP180;49320;52.512;13.448;2023-09-07T05:09:41;102010.00;;;24.20
63220;BMP180;49320;52.512;13.448;2023-09-07T05:12:08;102009.00;;;24.20
63220;BMP180;49320;52.512;13.448;2023-09-07T05:14:36;102014.00;;;24.20
63220;BMP180;49320;52.512;13.448;2023-09-07T05:17:03;102016.00;;;24.30
63220;BMP180;49320;52.512;13.448;2023-09-07T05:19:30;102015.00;;;24.30
63220;BMP180;49320;52.512;13.448;2023-09-07T05:21:57;102018.00;;;24.30
63220;BMP180;49320;52.512;13.448;2023-09-07T05:24:24;102018.00;;;24.40
63220;BMP180;49320;52.512;13.448;2023-09-07T05:26:51;102013.00;;;24.40
63220;BMP180;49320;52.512;13.448;2023-09-07T05:29:18;102012.00;;;24.40
63220;BMP180;49320;52.512;13.448;2023-09-07T05:31:47;102011.00;;;24.50
63220;BMP180;49320;52.512;13.448;2023-09-07T05:34:14;102015.00;;;24.50
63220;BMP180;49320;52.512;13.448;2023-09-07T05:36:41;102017.00;;;24.60
63220;BMP180;49320;52.512;13.448;2023-09-07T05:39:09;102019.00;;;24.60
63220;BMP180;49320;52.512;13.448;2023-09-07T05:41:36;102020.00;;;24.70
63220;BMP180;49320;52.512;13.448;2023-09-07T05:44:04;102023.00;;;24.70
63220;BMP180;49320;52.512;13.448;2023-09-07T05:46:31;102019.00;;;24.80
63220;BMP180;49320;52.512;13.448;2023-09-07T05:48:58;102024.00;;;24.80
63220;BMP180;49320;52.512;13.448;2023-09-07T05:51:25;102028.00;;;24.90
63220;BMP180;49320;52.512;13.448;2023-09-07T05:53:54;102029.00;;;25.00
63220;BMP180;49320;52.512;13.448;2023-09-07T05:56:22;102023.00;;;25.10
63220;BMP180;49320;52.512;13.448;2023-09-07T05:58:49;102035.00;;;25.10
63220;BMP180;49320;52.512;13.448;2023-09-07T06:01:16;102030.00;;;25.20
63220;BMP180;49320;52.512;13.448;2023-09-07T06:03:43;102032.00;;;25.30
63220;BMP180;49320;52.512;13.448;2023-09-07T06:06:10;102025.00;;;25.40
63220;BMP180;49320;52.512;13.448;2023-09-07T06:08:38;102031.00;;;25.50
63220;BMP180;49320;52.512;13.448;2023-09-07T06:11:05;102030.00;;;25.50
63220;BMP180;49320;52.512;13.448;2023-09-07T06:13:32;102024.00;;;25.60
63220;BMP180;49320;52.512;13.448;2023-09-07T06:15:59;102031.00;;;25.70
63220;BMP180;49320;52.512;13.448;2023-09-07T06:18:27;102041.00;;;25.80
63220;BMP180;49320;52.512;13.448;2023-09-07T06:20:56;102042.00;;;25.90
63220;BMP180;49320;52.512;13.448;2023-09-07T06:23:23;102031.00;;;25.90
63220;BMP180;49320;52.512;13.448;2023-09-07T06:25:50;102039.00;;;26.00
63220;BMP180;49320;52.512;13.448;2023-09-07T06:28:17;102053.00;;;26.10
63220;BMP180;49320;52.512;13.448;2023-09-07T06:30:44;102044.00;;;26.20
63220;BMP180;49320;52.512;13.448;2023-09-07T06:33:11;102035.00;;;26.30
63220;BMP180;49320;52.512;13.448;2023-09-07T06:35:39;102045.00;;;26.40
63220;BMP180;49320;52.512;13.448;2023-09-07T06:38:06;102046.00;;;26.40
63220;BMP180;49320;52.512;13.448;2023-09-07T06:40:32;102034.00;;;26.50
63220;BMP180;49320;52.512;13.448;2023-09-07T06:43:00;102046.00;;;26.60
63220;BMP180;49320;52.512;13.448;2023-09-07T06:45:27;102039.00;;;26.70
63220;BMP180;49320;52.512;13.448;2023-09-07T06:47:54;102053.00;;;26.80
63220;BMP180;49320;52.512;13.448;2023-09-07T06:50:21;102056.00;;;26.90
63220;BMP180;49320;52.512;13.448;2023-09-07T06:52:49;102052.00;;;27.00
63220;BMP180;49320;52.512;13.448;2023-09-07T06:55:16;102050.00;;;27.00
63220;BMP180;49320;52.512;13.448;2023-09-07T06:57:43;102058.00;;;27.10
63220;BMP180;49320;52.512;13.448;2023-09-07T07:00:11;102045.00;;;27.20
63220;BMP180;49320;52.512;13.448;2023-09-07T07:02:39;102045.00;;;27.30
63220;BMP180;49320;52.512;13.448;2023-09-07T07:05:06;102051.00;;;27.30
63220;BMP180;49320;52.512;13.448;2023-09-07T07:07:34;102052.00;;;27.40
63220;BMP180;49320;52.512;13.448;2023-09-07T07:10:01;102055.00;;;27.50
63220;BMP180;49320;52.512;13.448;2023-09-07T07:12:28;102050.00;;;27.50
63220;BMP180;49320;52.512;13.448;2023-09-07T07:14:55;102054.00;;;27.60
63220;BMP180;49320;52.512;13.448;2023-09-07T07:17:22;102059.00;;;27.70
63220;BMP180;49320;52.512;13.448;2023-09-07T07:19:49;102062.00;;;27.70
63220;BMP180;49320;52.512;13.448;2023-09-07T07:22:17;102053.00;;;27.90
63220;BMP180;49320;52.512;13.448;2023-09-07T07:24:47;102058.00;;;27.90
63220;BMP180;49320;52.512;13.448;2023-09-07T07:27:14;102062.00;;;27.90
63220;BMP180;49320;52.512;13.448;2023-09-07T07:29:41;102054.00;;;28.00
63220;BMP180;49320;52.512;13.448;2023-09-07T07:32:09;102065.00;;;28.10
63220;BMP180;49320;52.512;13.448;2023-09-07T07:34:36;102063.00;;;28.10
63220;BMP180;49320;52.512;13.448;2023-09-07T07:37:03;102058.00;;;28.20
63220;BMP180;49320;52.512;13.448;2023-09-07T07:39:30;102068.00;;;28.20
63220;BMP180;49320;52.512;13.448;2023-09-07T07:41:57;102070.00;;;28.30
63220;BMP180;49320;52.512;13.448;2023-09-07T07:44:24;102071.00;;;28.30
63220;BMP180;49320;52.512;13.448;2023-09-07T07:46:52;102076.00;;;28.40
63220;BMP180;49320;52.512;13.448;2023-09-07T07:49:19;102068.00;;;28.50
63220;BMP180;49320;52.512;13.448;2023-09-07T07:51:46;102065.00;;;28.50
63220;BMP180;49320;52.512;13.448;2023-09-07T07:54:13;102073.00;;;28.50
63220;BMP180;49320;52.512;13.448;2023-09-07T07:56:40;102068.00;;;28.60
63220;BMP180;49320;52.512;13.448;2023-09-07T07:59:08;102064.00;;;28.60
63220;BMP180;49320;52.512;13.448;2023-09-07T08:01:35;102069.00;;;28.60
63220;BMP180;49320;52.512;13.448;2023-09-07T08:04:03;102073.00;;;28.70
63220;BMP180;49320;52.512;13.448;2023-09-07T08:06:31;102067.00;;;28.80
63220;BMP180;49320;52.512;13.448;2023-09-07T08:08:58;102063.00;;;28.80
63220;BMP180;49320;52.512;13.448;2023-09-07T08:11:24;102077.00;;;28.90
63220;BMP180;49320;52.512;13.448;2023-09-07T08:13:53;102070.00;;;28.90
63220;BMP180;49320;52.512;13.448;2023-09-07T08:16:20;102069.00;;;29.00
63220;BMP180;49320;52.512;13.448;2023-09-07T08:18:48;102064.00;;;29.00
63220;BMP180;49320;52.512;13.448;2023-09-07T08:21:15;102076.00;;;29.10
63220;BMP180;49320;52.512;13.448;2023-09-07T08:23:42;102073.00;;;29.20
63220;BMP180;49320;52.512;13.448;2023-09-07T08:26:09;102077.00;;;29.20
63220;BMP180;49320;52.512;13.448;2023-09-07T08:28:36;102075.00;;;29.30
63220;BMP180;49320;52.512;13.448;2023-09-07T08:31:03;102073.00;;;29.30
63220;BMP180;49320;52.512;13.448;2023-09-07T08:33:32;102070.00;;;29.40
63220;BMP180;49320;52.512;13.448;2023-09-07T08:36:07;102071.00;;;29.50
63220;BMP180;49320;52.512;13.448;2023-09-07T08:38:35;102069.00;;;29.50
63220;BMP180;49320;52.512;13.448;2023-09-07T08:41:03;102077.00;;;29.60
63220;BMP180;49320;52.512;13.448;2023-09-07T08:43:42;102070.00;;;29.70
63220;BMP180;49320;52.512;13.448;2023-09-07T08:46:22;102071.00;;;29.80
63220;BMP180;49320;52.512;13.448;2023-09-07T08:48:51;102077.00;;;29.80
63220;BMP180;49320;52.512;13.448;2023-09-07T08:51:19;102075.00;;;29.90
63220;BMP180;49320;52.512;13.448;2023-09-07T08:53:47;102066.00;;;29.90
63220;BMP180;49320;52.512;13.448;2023-09-07T08:56:16;102073.00;;;30.00
63220;BMP180;49320;52.512;13.448;2023-09-07T08:58:44;102069.00;;;30.10
63220;BMP180;49320;52.512;13.448;2023-09-07T09:01:12;102070.00;;;30.10
63220;BMP180;49320;52.512;13.448;2023-09-07T09:03:42;102072.00;;;30.20
63220;BMP180;49320;52.512;13.448;2023-09-07T09:06:11;102064.00;;;30.30
63220;BMP180;49320;52.512;13.448;2023-09-07T09:08:53;102065.00;;;30.40
63220;BMP180;49320;52.512;13.448;2023-09-07T09:11:22;102071.00;;;30.50
63220;BMP180;49320;52.512;13.448;2023-09-07T09:13:53;102063.00;;;30.50
63220;BMP180;49320;52.512;13.448;2023-09-07T09:16:20;102061.00;;;30.60
63220;BMP180;49320;52.512;13.448;2023-09-07T09:18:54;102069.00;;;30.70
63220;BMP180;49320;52.512;13.448;2023-09-07T09:21:27;102060.00;;;30.70
63220;BMP180;49320;52.512;13.448;2023-09-07T09:23:57;102075.00;;;30.80
63220;BMP180;49320;52.512;13.448;2023-09-07T09:26:24;102069.00;;;30.90
63220;BMP180;49320;52.512;13.448;2023-09-07T09:28:56;102064.00;;;31.00
63220;BMP180;49320;52.512;13.448;2023-09-07T09:31:24;102060.00;;;31.00
63220;BMP180;49320;52.512;13.448;2023-09-07T09:33:52;102057.00;;;31.10
63220;BMP180;49320;52.512;13.448;2023-09-07T09:36:20;102057.00;;;31.20
63220;BMP180;49320;52.512;13.448;2023-09-07T09:38:49;102044.00;;;31.30
63220;BMP180;49320;52.512;13.448;2023-09-07T09:41:17;102051.00;;;31.30
63220;BMP180;49320;52.512;13.448;2023-09-07T09:43:46;102048.00;;;31.40
63220;BMP180;49320;52.512;13.448;2023-09-07T09:46:17;102043.00;;;31.50
63220;BMP180;49320;52.512;13.448;2023-09-07T09:48:44;102040.00;;;31.60
63220;BMP180;49320;52.512;13.448;2023-09-07T09:51:14;102038.00;;;31.70
63220;BMP180;49320;52.512;13.448;2023-09-07T09:53:42;102035.00;;;31.80
63220;BMP180;49320;52.512;13.448;2023-09-07T09:56:10;102053.00;;;31.80
63220;BMP180;49320;52.512;13.448;2023-09-07T09:58:38;102032.00;;;31.90
63220;BMP180;49320;52.512;13.448;2023-09-07T10:01:07;102032.00;;;31.90
63220;BMP180;49320;52.512;13.448;2023-09-07T10:03:42;102038.00;;;32.00
63220;BMP180;49320;52.512;13.448;2023-09-07T10:06:24;102045.00;;;32.10
63220;BMP180;49320;52.512;13.448;2023-09-07T10:09:06;102034.00;;;32.10
63220;BMP180;49320;52.512;13.448;2023-09-07T10:11:37;102024.00;;;32.10
63220;BMP180;49320;52.512;13.448;2023-09-07T10:14:06;102032.00;;;32.20
63220;BMP180;49320;52.512;13.448;2023-09-07T10:16:51;102040.00;;;32.30
63220;BMP180;49320;52.512;13.448;2023-09-07T10:19:26;102036.00;;;32.30
63220;BMP180;49320;52.512;13.448;2023-09-07T10:21:54;102035.00;;;32.40
63220;BMP180;49320;52.512;13.448;2023-09-07T10:24:31;102033.00;;;32.40
63220;BMP180;49320;52.512;13.448;2023-09-07T10:27:07;102025.00;;;32.40
63220;BMP180;49320;52.512;13.448;2023-09-07T10:29:46;102020.00;;;32.50
63220;BMP180;49320;52.512;13.448;2023-09-07T10:32:14;102024.00;;;32.50
63220;BMP180;49320;52.512;13.448;2023-09-07T10:34:46;102021.00;;;32.60
63220;BMP180;49320;52.512;13.448;2023-09-07T10:37:14;102034.00;;;32.60
63220;BMP180;49320;52.512;13.448;2023-09-07T10:39:44;102038.00;;;32.60
63220;BMP180;49320;52.512;13.448;2023-09-07T10:42:25;102037.00;;;32.70
63220;BMP180;49320;52.512;13.448;2023-09-07T10:44:53;102028.00;;;32.70
63220;BMP180;49320;52.512;13.448;2023-09-07T10:47:20;102034.00;;;32.70
63220;BMP180;49320;52.512;13.448;2023-09-07T10:49:48;102027.00;;;32.80
63220;BMP180;49320;52.512;13.448;2023-09-07T10:52:15;102032.00;;;32.80
63220;BMP180;49320;52.512;13.448;2023-09-07T10:54:42;102035.00;;;32.80
63220;BMP180;49320;52.512;13.448;2023-09-07T10:57:13;102023.00;;;32.80
63220;BMP180;49320;52.512;13.448;2023-09-07T10:59:47;102024.00;;;32.90
63220;BMP180;49320;52.512;13.448;2023-09-07T11:02:15;102016.00;;;32.80
63220;BMP180;49320;52.512;13.448;2023-09-07T11:04:43;102030.00;;;32.90
63220;BMP180;49320;52.512;13.448;2023-09-07T11:07:11;102023.00;;;32.90
63220;BMP180;49320;52.512;13.448;2023-09-07T11:09:42;102019.00;;;33.00
63220;BMP180;49320;52.512;13.448;2023-09-07T11:12:14;102030.00;;;33.10
63220;BMP180;49320;52.512;13.448;2023-09-07T11:14:43;102016.00;;;33.10
63220;BMP180;49320;52.512;13.448;2023-09-07T11:17:10;102005.00;;;33.10
63220;BMP180;49320;52.512;13.448;2023-09-07T11:19:37;102019.00;;;33.20
63220;BMP180;49320;52.512;13.448;2023-09-07T11:22:04;102007.00;;;33.20
63220;BMP180;49320;52.512;13.448;2023-09-07T11:24:34;102007.00;;;33.30
63220;BMP180;49320;52.512;13.448;2023-09-07T11:27:02;102001.00;;;33.30
63220;BMP180;49320;52.512;13.448;2023-09-07T11:29:32;101987.00;;;33.40
63220;BMP180;49320;52.512;13.448;2023-09-07T11:32:07;102002.00;;;33.50
63220;BMP180;49320;52.512;13.448;2023-09-07T11:34:35;102006.00;;;33.50
63220;BMP180;49320;52.512;13.448;2023-09-07T11:37:05;102004.00;;;33.50
63220;BMP180;49320;52.512;13.448;2023-09-07T11:39:31;101992.00;;;33.50
63220;BMP180;49320;52.512;13.448;2023-09-07T11:41:59;101988.00;;;33.50
63220;BMP180;49320;52.512;13.448;2023-09-07T11:44:25;101991.00;;;33.50
63220;BMP180;49320;52.512;13.448;2023-09-07T11:46:53;101995.00;;;33.60
63220;BMP180;49320;52.512;13.448;2023-09-07T11:49:20;101999.00;;;33.60
63220;BMP180;49320;52.512;13.448;2023-09-07T11:51:48;101996.00;;;33.60
63220;BMP180;49320;52.512;13.448;2023-09-07T11:54:16;102000.00;;;33.70
63220;BMP180;49320;52.512;13.448;2023-09-07T11:56:43;101990.00;;;33.70
63220;BMP180;49320;52.512;13.448;2023-09-07T11:59:12;101977.00;;;33.70
63220;BMP180;49320;52.512;13.448;2023-09-07T12:01:39;101986.00;;;33.80
63220;BMP180;49320;52.512;13.448;2023-09-07T12:04:06;101984.00;;;33.80
63220;BMP180;49320;52.512;13.448;2023-09-07T12:06:33;101987.00;;;33.80
63220;BMP180;49320;52.512;13.448;2023-09-07T12:09:05;101990.00;;;33.80
63220;BMP180;49320;52.512;13.448;2023-09-07T12:11:34;101985.00;;;33.80
63220;BMP180;49320;52.512;13.448;2023-09-07T12:14:01;101984.00;;;33.90
63220;BMP180;49320;52.512;13.448;2023-09-07T12:16:28;101986.00;;;33.90
63220;BMP180;49320;52.512;13.448;2023-09-07T12:18:56;101994.00;;;33.90
63220;BMP180;49320;52.512;13.448;2023-09-07T12:21:23;101986.00;;;33.90
63220;BMP180;49320;52.512;13.448;2023-09-07T12:23:50;101989.00;;;33.90
63220;BMP180;49320;52.512;13.448;2023-09-07T12:26:18;101994.00;;;33.90
63220;BMP180;49320;52.512;13.448;2023-09-07T12:28:48;101988.00;;;34.00
63220;BMP180;49320;52.512;13.448;2023-09-07T12:31:15;101992.00;;;34.00
63220;BMP180;49320;52.512;13.448;2023-09-07T12:33:43;101992.00;;;34.10
63220;BMP180;49320;52.512;13.448;2023-09-07T12:36:10;101993.00;;;34.10
63220;BMP180;49320;52.512;13.448;2023-09-07T12:38:39;101984.00;;;34.20
63220;BMP180;49320;52.512;13.448;2023-09-07T12:41:06;101981.00;;;34.20
63220;BMP180;49320;52.512;13.448;2023-09-07T12:43:33;101985.00;;;34.20
63220;BMP180;49320;52.512;13.448;2023-09-07T12:46:01;101977.00;;;34.20
63220;BMP180;49320;52.512;13.448;2023-09-07T12:48:29;101976.00;;;34.30
63220;BMP180;49320;52.512;13.448;2023-09-07T12:50:56;101975.00;;;34.30
63220;BMP180;49320;52.512;13.448;2023-09-07T12:53:23;101980.00;;;34.30
63220;BMP180;49320;52.512;13.448;2023-09-07T12:55:53;101973.00;;;34.30
63220;BMP180;49320;52.512;13.448;2023-09-07T12:58:21;101969.00;;;34.40
63220;BMP180;49320;52.512;13.448;2023-09-07T13:00:48;101963.00;;;34.40
63220;BMP180;49320;52.512;13.448;2023-09-07T13:03:15;101964.00;;;34.40
63220;BMP180;49320;52.512;13.448;2023-09-07T13:05:43;101958.00;;;34.40
63220;BMP180;49320;52.512;13.448;2023-09-07T13:08:11;101958.00;;;34.40
63220;BMP180;49320;52.512;13.448;2023-09-07T13:10:38;101954.00;;;34.40
63220;BMP180;49320;52.512;13.448;2023-09-07T13:13:06;101954.00;;;34.40
63220;BMP180;49320;52.512;13.448;2023-09-07T13:15:33;101951.00;;;34.40
63220;BMP180;49320;52.512;13.448;2023-09-07T13:18:00;101944.00;;;34.40
63220;BMP180;49320;52.512;13.448;2023-09-07T13:20:27;101952.00;;;34.40
63220;BMP180;49320;52.512;13.448;2023-09-07T13:22:55;101944.00;;;34.50
63220;BMP180;49320;52.512;13.448;2023-09-07T13:25:23;101949.00;;;34.50
63220;BMP180;49320;52.512;13.448;2023-09-07T13:27:50;101949.00;;;34.50
63220;BMP180;49320;52.512;13.448;2023-09-07T13:30:17;101945.00;;;34.50
63220;BMP180;49320;52.512;13.448;2023-09-07T13:32:45;101952.00;;;34.50
63220;BMP180;49320;52.512;13.448;2023-09-07T13:35:14;101945.00;;;34.50
63220;BMP180;49320;52.512;13.448;2023-09-07T13:37:41;101947.00;;;34.50
63220;BMP180;49320;52.512;13.448;2023-09-07T13:40:08;101943.00;;;34.50
63220;BMP180;49320;52.512;13.448;2023-09-07T13:42:36;101945.00;;;34.50
63220;BMP180;49320;52.512;13.448;2023-09-07T13:45:03;101936.00;;;34.50
63220;BMP180;49320;52.512;13.448;2023-09-07T13:47:29;101921.00;;;34.50
63220;BMP180;49320;52.512;13.448;2023-09-07T13:49:57;101930.00;;;34.50
63220;BMP180;49320;52.512;13.448;2023-09-07T13:52:24;101925.00;;;34.50